sensor_id;sensor_type;location;lat;lon;timestamp;P1;durP1;ratioP1;P2;durP2;ratioP2
4268;SDS011;2148;48.554;7.834;2023-02-01T00:00:14;3.67;;;3.37;;
4268;SDS011;2148;48.554;7.834;2023-02-01T00:02:39;3.40;;;3.17;;
4268;SDS011;2148;48.554;7.834;2023-02-01T00:05:08;2.30;;;2.10;;
4268;SDS011;2148;48.554;7.834;2023-02-01T00:07:34;3.50;;;3.20;;
4268;SDS011;2148;48.554;7.834;2023-02-01T00:09:59;3.97;;;3.40;;
4268;SDS011;2148;48.554;7.834;2023-02-01T00:12:25;4.00;;;3.60;;
4268;SDS011;2148;48.554;7.834;2023-02-01T00:14:50;3.83;;;3.23;;
4268;SDS011;2148;48.554;7.834;2023-02-01T00:17:15;4.87;;;3.80;;
4268;SDS011;2148;48.554;7.834;2023-02-01T00:19:40;4.57;;;3.87;;
4268;SDS011;2148;48.554;7.834;2023-02-01T00:22:06;4.10;;;3.70;;
4268;SDS011;2148;48.554;7.834;2023-02-01T00:24:31;4.63;;;3.77;;
4268;SDS011;2148;48.554;7.834;2023-02-01T00:26:56;6.20;;;4.30;;
4268;SDS011;2148;48.554;7.834;2023-02-01T00:29:21;4.00;;;3.60;;
4268;SDS011;2148;48.554;7.834;2023-02-01T00:31:48;4.73;;;4.03;;
4268;SDS011;2148;48.554;7.834;2023-02-01T00:34:15;4.47;;;4.10;;
4268;SDS011;2148;48.554;7.834;2023-02-01T00:36:41;3.97;;;3.63;;
4268;SDS011;2148;48.554;7.834;2023-02-01T00:39:07;5.17;;;4.67;;
4268;SDS011;2148;48.554;7.834;2023-02-01T00:41:33;5.37;;;4.87;;
4268;SDS011;2148;48.554;7.834;2023-02-01T00:43:58;5.13;;;4.63;;
4268;SDS011;2148;48.554;7.834;2023-02-01T00:46:23;5.60;;;4.90;;
4268;SDS011;2148;48.554;7.834;2023-02-01T00:48:49;5.10;;;4.60;;
4268;SDS011;2148;48.554;7.834;2023-02-01T00:51:15;5.57;;;4.20;;
4268;SDS011;2148;48.554;7.834;2023-02-01T00:53:43;4.87;;;4.47;;
4268;SDS011;2148;48.554;7.834;2023-02-01T00:56:08;3.97;;;3.67;;
4268;SDS011;2148;48.554;7.834;2023-02-01T00:58:34;4.60;;;3.80;;
4268;SDS011;2148;48.554;7.834;2023-02-01T01:03:28;6.40;;;5.67;;
4268;SDS011;2148;48.554;7.834;2023-02-01T01:05:58;7.57;;;4.13;;
4268;SDS011;2148;48.554;7.834;2023-02-01T01:08:23;5.40;;;4.90;;
4268;SDS011;2148;48.554;7.834;2023-02-01T01:10:48;6.43;;;5.17;;
4268;SDS011;2148;48.554;7.834;2023-02-01T01:13:14;5.97;;;4.80;;
4268;SDS011;2148;48.554;7.834;2023-02-01T01:15:40;5.40;;;4.90;;
4268;SDS011;2148;48.554;7.834;2023-02-01T01:18:06;4.77;;;4.27;;
4268;SDS011;2148;48.554;7.834;2023-02-01T01:20:33;7.10;;;5.07;;
4268;SDS011;2148;48.554;7.834;2023-02-01T01:23:00;9.13;;;5.30;;
4268;SDS011;2148;48.554;7.834;2023-02-01T01:25:25;4.33;;;3.10;;
4268;SDS011;2148;48.554;7.834;2023-02-01T01:27:50;6.83;;;5.00;;
4268;SDS011;2148;48.554;7.834;2023-02-01T01:30:16;3.57;;;3.00;;
4268;SDS011;2148;48.554;7.834;2023-02-01T01:32:41;6.50;;;5.07;;
4268;SDS011;2148;48.554;7.834;2023-02-01T01:35:06;4.43;;;4.03;;
4268;SDS011;2148;48.554;7.834;2023-02-01T01:37:32;5.30;;;4.80;;
4268;SDS011;2148;48.554;7.834;2023-02-01T01:39:57;4.57;;;4.10;;
4268;SDS011;2148;48.554;7.834;2023-02-01T01:42:22;3.67;;;3.20;;
4268;SDS011;2148;48.554;7.834;2023-02-01T01:45:23;4.53;;;3.27;;
4268;SDS011;2148;48.554;7.834;2023-02-01T01:48:02;3.87;;;3.53;;
4268;SDS011;2148;48.554;7.834;2023-02-01T01:50:35;5.37;;;4.50;;
4268;SDS011;2148;48.554;7.834;2023-02-01T01:53:04;4.13;;;3.53;;
4268;SDS011;2148;48.554;7.834;2023-02-01T01:55:32;5.90;;;4.23;;
4268;SDS011;2148;48.554;7.834;2023-02-01T01:58:02;4.63;;;4.23;;
4268;SDS011;2148;48.554;7.834;2023-02-01T02:00:30;7.57;;;4.53;;
4268;SDS011;2148;48.554;7.834;2023-02-01T02:03:16;5.73;;;4.57;;
4268;SDS011;2148;48.554;7.834;2023-02-01T02:05:43;4.93;;;4.13;;
4268;SDS011;2148;48.554;7.834;2023-02-01T02:08:09;6.87;;;5.13;;
4268;SDS011;2148;48.554;7.834;2023-02-01T02:10:36;5.70;;;5.20;;
4268;SDS011;2148;48.554;7.834;2023-02-01T02:13:19;4.07;;;3.70;;
4268;SDS011;2148;48.554;7.834;2023-02-01T02:16:05;3.07;;;2.80;;
4268;SDS011;2148;48.554;7.834;2023-02-01T02:18:40;5.03;;;4.53;;
4268;SDS011;2148;48.554;7.834;2023-02-01T02:24:19;5.37;;;4.87;;
4268;SDS011;2148;48.554;7.834;2023-02-01T02:32:23;6.20;;;5.10;;
4268;SDS011;2148;48.554;7.834;2023-02-01T02:35:01;4.23;;;3.63;;
4268;SDS011;2148;48.554;7.834;2023-02-01T02:37:36;5.67;;;5.17;;
4268;SDS011;2148;48.554;7.834;2023-02-01T02:40:17;4.87;;;4.27;;
4268;SDS011;2148;48.554;7.834;2023-02-01T02:45:45;5.50;;;5.00;;
4268;SDS011;2148;48.554;7.834;2023-02-01T02:48:37;4.10;;;3.70;;
4268;SDS011;2148;48.554;7.834;2023-02-01T02:51:09;5.77;;;4.63;;
4268;SDS011;2148;48.554;7.834;2023-02-01T02:54:04;5.37;;;4.87;;
4268;SDS011;2148;48.554;7.834;2023-02-01T02:56:49;5.67;;;4.90;;
4268;SDS011;2148;48.554;7.834;2023-02-01T02:59:34;4.70;;;4.30;;
4268;SDS011;2148;48.554;7.834;2023-02-01T03:02:19;5.30;;;4.80;;
4268;SDS011;2148;48.554;7.834;2023-02-01T03:05:03;5.80;;;5.20;;
4268;SDS011;2148;48.554;7.834;2023-02-01T03:10:26;5.47;;;4.93;;
4268;SDS011;2148;48.554;7.834;2023-02-01T03:12:56;3.97;;;2.93;;
4268;SDS011;2148;48.554;7.834;2023-02-01T03:15:28;6.00;;;5.40;;
4268;SDS011;2148;48.554;7.834;2023-02-01T03:17:57;5.90;;;4.63;;
4268;SDS011;2148;48.554;7.834;2023-02-01T03:20:26;5.00;;;3.67;;
4268;SDS011;2148;48.554;7.834;2023-02-01T03:22:52;10.77;;;4.03;;
4268;SDS011;2148;48.554;7.834;2023-02-01T03:25:20;3.50;;;3.20;;
4268;SDS011;2148;48.554;7.834;2023-02-01T03:27:51;6.53;;;4.93;;
4268;SDS011;2148;48.554;7.834;2023-02-01T03:30:22;4.47;;;3.70;;
4268;SDS011;2148;48.554;7.834;2023-02-01T03:32:52;4.20;;;3.67;;
4268;SDS011;2148;48.554;7.834;2023-02-01T03:35:30;5.63;;;3.60;;
4268;SDS011;2148;48.554;7.834;2023-02-01T03:40:45;4.93;;;4.43;;
4268;SDS011;2148;48.554;7.834;2023-02-01T03:43:14;4.27;;;3.83;;
4268;SDS011;2148;48.554;7.834;2023-02-01T03:45:43;8.50;;;4.40;;
4268;SDS011;2148;48.554;7.834;2023-02-01T03:48:09;4.53;;;3.67;;
4268;SDS011;2148;48.554;7.834;2023-02-01T03:50:37;4.37;;;3.90;;
4268;SDS011;2148;48.554;7.834;2023-02-01T03:53:06;7.03;;;5.87;;
4268;SDS011;2148;48.554;7.834;2023-02-01T03:55:33;4.27;;;3.77;;
4268;SDS011;2148;48.554;7.834;2023-02-01T03:58:07;4.57;;;3.83;;
4268;SDS011;2148;48.554;7.834;2023-02-01T04:00:34;5.80;;;5.20;;
4268;SDS011;2148;48.554;7.834;2023-02-01T04:03:00;4.83;;;4.27;;
4268;SDS011;2148;48.554;7.834;2023-02-01T04:05:26;5.70;;;5.20;;
4268;SDS011;2148;48.554;7.834;2023-02-01T04:07:51;5.03;;;4.63;;
4268;SDS011;2148;48.554;7.834;2023-02-01T04:10:16;6.33;;;4.60;;
4268;SDS011;2148;48.554;7.834;2023-02-01T04:12:42;4.47;;;4.07;;
4268;SDS011;2148;48.554;7.834;2023-02-01T04:15:07;4.73;;;4.33;;
4268;SDS011;2148;48.554;7.834;2023-02-01T04:17:33;3.87;;;3.53;;
4268;SDS011;2148;48.554;7.834;2023-02-01T04:19:58;6.30;;;5.07;;
4268;SDS011;2148;48.554;7.834;2023-02-01T04:22:23;4.90;;;4.40;;
4268;SDS011;2148;48.554;7.834;2023-02-01T04:24:49;8.20;;;6.07;;
4268;SDS011;2148;48.554;7.834;2023-02-01T04:27:14;5.90;;;5.30;;
4268;SDS011;2148;48.554;7.834;2023-02-01T04:29:40;4.90;;;3.53;;
4268;SDS011;2148;48.554;7.834;2023-02-01T04:32:05;3.40;;;3.10;;
4268;SDS011;2148;48.554;7.834;2023-02-01T04:34:31;4.10;;;3.73;;
4268;SDS011;2148;48.554;7.834;2023-02-01T04:36:56;4.77;;;4.07;;
4268;SDS011;2148;48.554;7.834;2023-02-01T04:39:21;4.10;;;3.73;;
4268;SDS011;2148;48.554;7.834;2023-02-01T04:41:46;4.23;;;3.93;;
4268;SDS011;2148;48.554;7.834;2023-02-01T04:44:18;4.13;;;3.83;;
4268;SDS011;2148;48.554;7.834;2023-02-01T04:46:44;5.17;;;3.80;;
4268;SDS011;2148;48.554;7.834;2023-02-01T04:49:10;4.40;;;3.73;;
4268;SDS011;2148;48.554;7.834;2023-02-01T04:51:36;8.13;;;4.93;;
4268;SDS011;2148;48.554;7.834;2023-02-01T04:54:02;4.50;;;3.00;;
4268;SDS011;2148;48.554;7.834;2023-02-01T04:56:27;5.87;;;4.47;;
4268;SDS011;2148;48.554;7.834;2023-02-01T04:58:52;5.17;;;4.67;;
4268;SDS011;2148;48.554;7.834;2023-02-01T05:01:18;5.90;;;5.37;;
4268;SDS011;2148;48.554;7.834;2023-02-01T05:03:43;4.23;;;3.83;;
4268;SDS011;2148;48.554;7.834;2023-02-01T05:06:09;5.70;;;5.10;;
4268;SDS011;2148;48.554;7.834;2023-02-01T05:08:34;6.73;;;5.27;;
4268;SDS011;2148;48.554;7.834;2023-02-01T05:10:59;5.97;;;5.03;;
4268;SDS011;2148;48.554;7.834;2023-02-01T05:13:27;5.77;;;5.17;;
4268;SDS011;2148;48.554;7.834;2023-02-01T05:16:11;6.83;;;5.07;;
4268;SDS011;2148;48.554;7.834;2023-02-01T05:18:36;6.33;;;4.70;;
4268;SDS011;2148;48.554;7.834;2023-02-01T05:21:01;5.73;;;4.63;;
4268;SDS011;2148;48.554;7.834;2023-02-01T05:23:27;5.87;;;4.40;;
4268;SDS011;2148;48.554;7.834;2023-02-01T05:25:52;5.07;;;4.57;;
4268;SDS011;2148;48.554;7.834;2023-02-01T05:28:17;5.00;;;3.47;;
4268;SDS011;2148;48.554;7.834;2023-02-01T05:30:43;4.40;;;4.00;;
4268;SDS011;2148;48.554;7.834;2023-02-01T05:33:08;4.00;;;3.70;;
4268;SDS011;2148;48.554;7.834;2023-02-01T05:35:33;5.07;;;3.90;;
4268;SDS011;2148;48.554;7.834;2023-02-01T05:37:58;5.10;;;4.17;;
4268;SDS011;2148;48.554;7.834;2023-02-01T05:40:23;3.57;;;3.27;;
4268;SDS011;2148;48.554;7.834;2023-02-01T05:42:49;4.70;;;3.43;;
4268;SDS011;2148;48.554;7.834;2023-02-01T05:45:14;5.27;;;3.97;;
4268;SDS011;2148;48.554;7.834;2023-02-01T05:47:39;5.70;;;3.67;;
4268;SDS011;2148;48.554;7.834;2023-02-01T05:50:06;4.27;;;3.87;;
4268;SDS011;2148;48.554;7.834;2023-02-01T05:52:32;3.77;;;3.37;;
4268;SDS011;2148;48.554;7.834;2023-02-01T05:54:57;3.90;;;3.60;;
4268;SDS011;2148;48.554;7.834;2023-02-01T05:57:22;4.30;;;3.93;;
4268;SDS011;2148;48.554;7.834;2023-02-01T05:59:47;3.70;;;3.33;;
4268;SDS011;2148;48.554;7.834;2023-02-01T06:02:14;3.23;;;2.93;;
4268;SDS011;2148;48.554;7.834;2023-02-01T06:04:42;4.50;;;4.10;;
4268;SDS011;2148;48.554;7.834;2023-02-01T06:07:07;5.40;;;4.03;;
4268;SDS011;2148;48.554;7.834;2023-02-01T06:09:35;3.60;;;3.30;;
4268;SDS011;2148;48.554;7.834;2023-02-01T06:12:00;3.83;;;3.13;;
4268;SDS011;2148;48.554;7.834;2023-02-01T06:14:26;2.80;;;2.60;;
4268;SDS011;2148;48.554;7.834;2023-02-01T06:16:52;3.47;;;3.10;;
4268;SDS011;2148;48.554;7.834;2023-02-01T06:19:18;3.50;;;3.00;;
4268;SDS011;2148;48.554;7.834;2023-02-01T06:21:44;3.37;;;3.07;;
4268;SDS011;2148;48.554;7.834;2023-02-01T06:24:09;5.27;;;3.83;;
4268;SDS011;2148;48.554;7.834;2023-02-01T06:26:35;3.57;;;3.27;;
4268;SDS011;2148;48.554;7.834;2023-02-01T06:29:00;5.97;;;4.40;;
4268;SDS011;2148;48.554;7.834;2023-02-01T06:31:26;5.73;;;4.23;;
4268;SDS011;2148;48.554;7.834;2023-02-01T06:33:51;4.50;;;4.10;;
4268;SDS011;2148;48.554;7.834;2023-02-01T06:36:16;3.97;;;3.60;;
4268;SDS011;2148;48.554;7.834;2023-02-01T06:38:43;4.07;;;3.77;;
4268;SDS011;2148;48.554;7.834;2023-02-01T06:41:09;2.97;;;2.77;;
4268;SDS011;2148;48.554;7.834;2023-02-01T06:43:34;5.33;;;3.10;;
4268;SDS011;2148;48.554;7.834;2023-02-01T06:46:04;3.70;;;3.40;;
4268;SDS011;2148;48.554;7.834;2023-02-01T06:48:31;4.13;;;3.30;;
4268;SDS011;2148;48.554;7.834;2023-02-01T06:50:57;3.73;;;3.10;;
4268;SDS011;2148;48.554;7.834;2023-02-01T06:53:22;5.43;;;3.77;;
4268;SDS011;2148;48.554;7.834;2023-02-01T06:55:55;5.37;;;3.60;;
4268;SDS011;2148;48.554;7.834;2023-02-01T06:58:21;4.37;;;3.50;;
4268;SDS011;2148;48.554;7.834;2023-02-01T07:00:46;3.83;;;3.43;;
4268;SDS011;2148;48.554;7.834;2023-02-01T07:03:12;4.07;;;3.63;;
4268;SDS011;2148;48.554;7.834;2023-02-01T07:05:37;4.03;;;3.73;;
4268;SDS011;2148;48.554;7.834;2023-02-01T07:08:02;5.77;;;3.97;;
4268;SDS011;2148;48.554;7.834;2023-02-01T07:10:28;3.30;;;3.00;;
4268;SDS011;2148;48.554;7.834;2023-02-01T07:12:55;3.97;;;3.57;;
4268;SDS011;2148;48.554;7.834;2023-02-01T07:15:22;4.13;;;3.60;;
4268;SDS011;2148;48.554;7.834;2023-02-01T07:17:47;2.77;;;2.57;;
4268;SDS011;2148;48.554;7.834;2023-02-01T07:20:14;3.60;;;2.90;;
4268;SDS011;2148;48.554;7.834;2023-02-01T07:22:39;3.07;;;2.77;;
4268;SDS011;2148;48.554;7.834;2023-02-01T07:25:04;3.20;;;2.90;;
4268;SDS011;2148;48.554;7.834;2023-02-01T07:27:30;3.80;;;2.93;;
4268;SDS011;2148;48.554;7.834;2023-02-01T07:29:56;3.40;;;3.10;;
4268;SDS011;2148;48.554;7.834;2023-02-01T07:32:21;2.47;;;2.33;;
4268;SDS011;2148;48.554;7.834;2023-02-01T07:34:46;2.80;;;2.60;;
4268;SDS011;2148;48.554;7.834;2023-02-01T07:37:12;2.60;;;2.40;;
4268;SDS011;2148;48.554;7.834;2023-02-01T07:39:37;2.97;;;2.73;;
4268;SDS011;2148;48.554;7.834;2023-02-01T07:42:02;2.97;;;2.17;;
4268;SDS011;2148;48.554;7.834;2023-02-01T07:44:27;3.47;;;2.90;;
4268;SDS011;2148;48.554;7.834;2023-02-01T07:46:53;3.37;;;3.07;;
4268;SDS011;2148;48.554;7.834;2023-02-01T07:49:18;4.70;;;2.80;;
4268;SDS011;2148;48.554;7.834;2023-02-01T07:51:43;4.17;;;2.90;;
4268;SDS011;2148;48.554;7.834;2023-02-01T07:54:09;4.03;;;3.40;;
4268;SDS011;2148;48.554;7.834;2023-02-01T07:56:34;3.10;;;2.63;;
4268;SDS011;2148;48.554;7.834;2023-02-01T07:58:59;2.23;;;2.03;;
4268;SDS011;2148;48.554;7.834;2023-02-01T08:01:26;3.07;;;2.87;;
4268;SDS011;2148;48.554;7.834;2023-02-01T08:03:56;3.00;;;2.70;;
4268;SDS011;2148;48.554;7.834;2023-02-01T08:06:24;2.93;;;2.57;;
4268;SDS011;2148;48.554;7.834;2023-02-01T08:08:51;3.43;;;3.13;;
4268;SDS011;2148;48.554;7.834;2023-02-01T08:11:17;2.30;;;2.10;;
4268;SDS011;2148;48.554;7.834;2023-02-01T08:13:43;2.83;;;2.47;;
4268;SDS011;2148;48.554;7.834;2023-02-01T08:16:09;3.23;;;2.93;;
4268;SDS011;2148;48.554;7.834;2023-02-01T08:18:36;3.47;;;2.73;;
4268;SDS011;2148;48.554;7.834;2023-02-01T08:21:03;4.27;;;3.10;;
4268;SDS011;2148;48.554;7.834;2023-02-01T08:23:30;2.40;;;2.20;;
4268;SDS011;2148;48.554;7.834;2023-02-01T08:26:13;3.17;;;2.87;;
4268;SDS011;2148;48.554;7.834;2023-02-01T08:28:41;3.50;;;2.67;;
4268;SDS011;2148;48.554;7.834;2023-02-01T08:31:08;5.23;;;2.83;;
4268;SDS011;2148;48.554;7.834;2023-02-01T08:33:35;2.80;;;2.30;;
4268;SDS011;2148;48.554;7.834;2023-02-01T08:36:02;3.07;;;2.60;;
4268;SDS011;2148;48.554;7.834;2023-02-01T08:38:28;2.33;;;2.13;;
4268;SDS011;2148;48.554;7.834;2023-02-01T08:40:54;3.30;;;3.00;;
4268;SDS011;2148;48.554;7.834;2023-02-01T08:43:19;3.00;;;2.50;;
4268;SDS011;2148;48.554;7.834;2023-02-01T08:45:44;5.37;;;3.27;;
4268;SDS011;2148;48.554;7.834;2023-02-01T08:48:09;3.20;;;2.57;;
4268;SDS011;2148;48.554;7.834;2023-02-01T08:50:35;3.60;;;3.20;;
4268;SDS011;2148;48.554;7.834;2023-02-01T08:53:00;5.90;;;3.10;;
4268;SDS011;2148;48.554;7.834;2023-02-01T08:55:25;3.77;;;3.47;;
4268;SDS011;2148;48.554;7.834;2023-02-01T08:57:51;3.60;;;2.97;;
4268;SDS011;2148;48.554;7.834;2023-02-01T09:00:17;5.40;;;3.33;;
4268;SDS011;2148;48.554;7.834;2023-02-01T09:02:42;4.37;;;3.37;;
4268;SDS011;2148;48.554;7.834;2023-02-01T09:05:08;6.90;;;3.30;;
4268;SDS011;2148;48.554;7.834;2023-02-01T09:07:34;4.53;;;3.17;;
4268;SDS011;2148;48.554;7.834;2023-02-01T09:09:59;8.53;;;3.13;;
4268;SDS011;2148;48.554;7.834;2023-02-01T09:12:26;4.13;;;3.00;;
4268;SDS011;2148;48.554;7.834;2023-02-01T09:14:53;4.47;;;3.07;;
4268;SDS011;2148;48.554;7.834;2023-02-01T09:17:18;3.93;;;2.30;;
4268;SDS011;2148;48.554;7.834;2023-02-01T09:19:43;4.87;;;4.20;;
4268;SDS011;2148;48.554;7.834;2023-02-01T09:22:09;11.70;;;5.70;;
4268;SDS011;2148;48.554;7.834;2023-02-01T09:24:34;5.27;;;3.40;;
4268;SDS011;2148;48.554;7.834;2023-02-01T09:26:59;7.40;;;4.00;;
4268;SDS011;2148;48.554;7.834;2023-02-01T09:29:24;6.67;;;3.37;;
4268;SDS011;2148;48.554;7.834;2023-02-01T09:31:50;8.97;;;4.30;;
4268;SDS011;2148;48.554;7.834;2023-02-01T09:34:15;4.57;;;3.23;;
4268;SDS011;2148;48.554;7.834;2023-02-01T09:36:40;6.13;;;3.37;;
4268;SDS011;2148;48.554;7.834;2023-02-01T09:39:06;7.10;;;2.60;;
4268;SDS011;2148;48.554;7.834;2023-02-01T09:47:19;5.40;;;3.23;;
4268;SDS011;2148;48.554;7.834;2023-02-01T09:49:52;3.03;;;2.27;;
4268;SDS011;2148;48.554;7.834;2023-02-01T09:52:38;3.20;;;2.80;;
4268;SDS011;2148;48.554;7.834;2023-02-01T09:55:09;2.67;;;2.47;;
4268;SDS011;2148;48.554;7.834;2023-02-01T09:57:49;2.93;;;2.37;;
4268;SDS011;2148;48.554;7.834;2023-02-01T10:00:21;2.63;;;2.30;;
4268;SDS011;2148;48.554;7.834;2023-02-01T10:02:51;3.40;;;3.10;;
4268;SDS011;2148;48.554;7.834;2023-02-01T10:05:22;3.83;;;2.97;;
4268;SDS011;2148;48.554;7.834;2023-02-01T10:08:05;2.63;;;2.40;;
4268;SDS011;2148;48.554;7.834;2023-02-01T10:10:41;2.53;;;2.27;;
4268;SDS011;2148;48.554;7.834;2023-02-01T10:13:52;3.67;;;3.07;;
4268;SDS011;2148;48.554;7.834;2023-02-01T10:18:56;2.70;;;2.50;;
4268;SDS011;2148;48.554;7.834;2023-02-01T10:26:51;4.97;;;3.20;;
4268;SDS011;2148;48.554;7.834;2023-02-01T10:29:22;3.83;;;3.07;;
4268;SDS011;2148;48.554;7.834;2023-02-01T10:31:50;2.53;;;2.23;;
4268;SDS011;2148;48.554;7.834;2023-02-01T10:34:18;3.47;;;2.80;;
4268;SDS011;2148;48.554;7.834;2023-02-01T10:36:53;4.80;;;2.70;;
4268;SDS011;2148;48.554;7.834;2023-02-01T10:39:20;5.87;;;2.97;;
4268;SDS011;2148;48.554;7.834;2023-02-01T10:41:46;3.10;;;2.83;;
4268;SDS011;2148;48.554;7.834;2023-02-01T10:44:13;7.07;;;3.73;;
4268;SDS011;2148;48.554;7.834;2023-02-01T10:46:40;8.97;;;4.40;;
4268;SDS011;2148;48.554;7.834;2023-02-01T10:49:09;3.83;;;3.23;;
4268;SDS011;2148;48.554;7.834;2023-02-01T10:54:18;7.17;;;5.80;;
4268;SDS011;2148;48.554;7.834;2023-02-01T10:56:49;5.83;;;3.63;;
4268;SDS011;2148;48.554;7.834;2023-02-01T10:59:19;10.67;;;4.30;;
4268;SDS011;2148;48.554;7.834;2023-02-01T11:01:47;7.13;;;4.13;;
4268;SDS011;2148;48.554;7.834;2023-02-01T11:04:14;6.83;;;3.93;;
4268;SDS011;2148;48.554;7.834;2023-02-01T11:06:42;4.47;;;3.10;;
4268;SDS011;2148;48.554;7.834;2023-02-01T11:16:52;3.40;;;2.80;;
4268;SDS011;2148;48.554;7.834;2023-02-01T11:19:20;2.50;;;2.30;;
4268;SDS011;2148;48.554;7.834;2023-02-01T11:21:52;6.17;;;3.77;;
4268;SDS011;2148;48.554;7.834;2023-02-01T11:24:40;5.60;;;3.37;;
4268;SDS011;2148;48.554;7.834;2023-02-01T11:27:05;2.70;;;2.50;;
4268;SDS011;2148;48.554;7.834;2023-02-01T11:29:41;3.10;;;2.80;;
4268;SDS011;2148;48.554;7.834;2023-02-01T11:32:09;4.50;;;3.10;;
4268;SDS011;2148;48.554;7.834;2023-02-01T11:34:45;3.90;;;3.47;;
4268;SDS011;2148;48.554;7.834;2023-02-01T11:37:21;4.43;;;3.07;;
4268;SDS011;2148;48.554;7.834;2023-02-01T11:42:21;6.57;;;5.20;;
4268;SDS011;2148;48.554;7.834;2023-02-01T11:44:46;7.50;;;4.33;;
4268;SDS011;2148;48.554;7.834;2023-02-01T11:49:43;5.03;;;3.97;;
4268;SDS011;2148;48.554;7.834;2023-02-01T11:57:53;8.47;;;5.97;;
4268;SDS011;2148;48.554;7.834;2023-02-01T12:00:47;8.37;;;5.63;;
4268;SDS011;2148;48.554;7.834;2023-02-01T12:12:06;8.57;;;4.33;;
4268;SDS011;2148;48.554;7.834;2023-02-01T12:20:04;7.43;;;4.53;;
4268;SDS011;2148;48.554;7.834;2023-02-01T12:22:55;8.93;;;6.23;;
4268;SDS011;2148;48.554;7.834;2023-02-01T12:36:32;12.97;;;5.17;;
4268;SDS011;2148;48.554;7.834;2023-02-01T12:39:18;11.90;;;4.33;;
4268;SDS011;2148;48.554;7.834;2023-02-01T12:41:47;11.80;;;4.27;;
4268;SDS011;2148;48.554;7.834;2023-02-01T12:44:42;8.90;;;3.57;;
4268;SDS011;2148;48.554;7.834;2023-02-01T12:47:22;12.30;;;4.70;;
4268;SDS011;2148;48.554;7.834;2023-02-01T12:52:44;11.60;;;4.03;;
4268;SDS011;2148;48.554;7.834;2023-02-01T12:57:56;6.70;;;3.50;;
4268;SDS011;2148;48.554;7.834;2023-02-01T13:00:40;6.00;;;3.70;;
4268;SDS011;2148;48.554;7.834;2023-02-01T13:03:13;9.03;;;4.27;;
4268;SDS011;2148;48.554;7.834;2023-02-01T13:06:02;10.80;;;4.30;;
4268;SDS011;2148;48.554;7.834;2023-02-01T13:08:40;10.20;;;3.90;;
4268;SDS011;2148;48.554;7.834;2023-02-01T13:11:16;8.47;;;4.10;;
4268;SDS011;2148;48.554;7.834;2023-02-01T13:16:21;4.97;;;3.67;;
4268;SDS011;2148;48.554;7.834;2023-02-01T13:18:54;12.67;;;4.90;;
4268;SDS011;2148;48.554;7.834;2023-02-01T13:21:26;9.70;;;7.10;;
4268;SDS011;2148;48.554;7.834;2023-02-01T13:23:55;11.43;;;4.67;;
4268;SDS011;2148;48.554;7.834;2023-02-01T13:26:21;12.03;;;4.37;;
4268;SDS011;2148;48.554;7.834;2023-02-01T13:28:51;10.10;;;4.30;;
4268;SDS011;2148;48.554;7.834;2023-02-01T13:42:52;8.33;;;3.63;;
4268;SDS011;2148;48.554;7.834;2023-02-01T13:45:20;8.13;;;4.10;;
4268;SDS011;2148;48.554;7.834;2023-02-01T13:47:48;7.90;;;3.87;;
4268;SDS011;2148;48.554;7.834;2023-02-01T13:53:04;6.07;;;3.20;;
4268;SDS011;2148;48.554;7.834;2023-02-01T13:55:46;8.57;;;3.40;;
4268;SDS011;2148;48.554;7.834;2023-02-01T13:58:15;5.70;;;4.03;;
4268;SDS011;2148;48.554;7.834;2023-02-01T14:00:44;9.10;;;4.27;;
4268;SDS011;2148;48.554;7.834;2023-02-01T14:03:16;12.20;;;4.83;;
4268;SDS011;2148;48.554;7.834;2023-02-01T14:08:21;11.27;;;5.03;;
4268;SDS011;2148;48.554;7.834;2023-02-01T14:13:32;8.57;;;4.00;;
4268;SDS011;2148;48.554;7.834;2023-02-01T14:26:19;8.43;;;4.17;;
4268;SDS011;2148;48.554;7.834;2023-02-01T14:28:54;10.47;;;3.57;;
4268;SDS011;2148;48.554;7.834;2023-02-01T14:33:59;7.03;;;3.80;;
4268;SDS011;2148;48.554;7.834;2023-02-01T14:36:26;2.40;;;2.03;;
4268;SDS011;2148;48.554;7.834;2023-02-01T14:39:04;9.90;;;3.90;;
4268;SDS011;2148;48.554;7.834;2023-02-01T14:41:32;10.93;;;5.57;;
4268;SDS011;2148;48.554;7.834;2023-02-01T14:49:31;9.17;;;4.80;;
4268;SDS011;2148;48.554;7.834;2023-02-01T14:51:58;11.10;;;5.53;;
4268;SDS011;2148;48.554;7.834;2023-02-01T14:54:24;14.80;;;7.77;;
4268;SDS011;2148;48.554;7.834;2023-02-01T14:56:50;12.17;;;5.67;;
4268;SDS011;2148;48.554;7.834;2023-02-01T14:59:16;12.57;;;5.97;;
4268;SDS011;2148;48.554;7.834;2023-02-01T15:01:49;14.13;;;6.67;;
4268;SDS011;2148;48.554;7.834;2023-02-01T15:04:16;11.80;;;5.43;;
4268;SDS011;2148;48.554;7.834;2023-02-01T15:09:29;11.60;;;5.47;;
4268;SDS011;2148;48.554;7.834;2023-02-01T15:14:41;8.60;;;3.97;;
4268;SDS011;2148;48.554;7.834;2023-02-01T15:17:27;10.43;;;4.13;;
4268;SDS011;2148;48.554;7.834;2023-02-01T15:22:51;8.27;;;3.80;;
4268;SDS011;2148;48.554;7.834;2023-02-01T15:25:19;12.87;;;4.60;;
4268;SDS011;2148;48.554;7.834;2023-02-01T15:27:48;6.37;;;3.63;;
4268;SDS011;2148;48.554;7.834;2023-02-01T15:30:22;7.97;;;3.87;;
4268;SDS011;2148;48.554;7.834;2023-02-01T15:32:49;6.77;;;5.13;;
4268;SDS011;2148;48.554;7.834;2023-02-01T15:35:31;7.57;;;3.47;;
4268;SDS011;2148;48.554;7.834;2023-02-01T15:43:29;10.53;;;3.90;;
4268;SDS011;2148;48.554;7.834;2023-02-01T15:46:01;9.67;;;3.50;;
4268;SDS011;2148;48.554;7.834;2023-02-01T15:48:30;9.97;;;4.37;;
4268;SDS011;2148;48.554;7.834;2023-02-01T15:50:59;9.33;;;4.20;;
4268;SDS011;2148;48.554;7.834;2023-02-01T15:53:24;9.77;;;3.73;;
4268;SDS011;2148;48.554;7.834;2023-02-01T15:55:56;8.53;;;3.80;;
4268;SDS011;2148;48.554;7.834;2023-02-01T15:58:24;4.13;;;2.93;;
4268;SDS011;2148;48.554;7.834;2023-02-01T16:01:01;5.63;;;3.27;;
4268;SDS011;2148;48.554;7.834;2023-02-01T16:06:06;9.60;;;3.40;;
4268;SDS011;2148;48.554;7.834;2023-02-01T16:08:33;7.67;;;3.63;;
4268;SDS011;2148;48.554;7.834;2023-02-01T16:13:33;10.80;;;3.53;;
4268;SDS011;2148;48.554;7.834;2023-02-01T16:15:58;7.37;;;4.07;;
4268;SDS011;2148;48.554;7.834;2023-02-01T16:18:23;7.07;;;4.10;;
4268;SDS011;2148;48.554;7.834;2023-02-01T16:20:48;8.23;;;3.17;;
4268;SDS011;2148;48.554;7.834;2023-02-01T16:23:14;10.93;;;4.30;;
4268;SDS011;2148;48.554;7.834;2023-02-01T16:25:39;9.40;;;4.13;;
4268;SDS011;2148;48.554;7.834;2023-02-01T16:28:05;4.87;;;3.13;;
4268;SDS011;2148;48.554;7.834;2023-02-01T16:30:30;9.60;;;4.37;;
4268;SDS011;2148;48.554;7.834;2023-02-01T16:32:57;2.23;;;2.07;;
4268;SDS011;2148;48.554;7.834;2023-02-01T16:37:51;5.30;;;3.70;;
4268;SDS011;2148;48.554;7.834;2023-02-01T16:40:17;10.37;;;4.70;;
4268;SDS011;2148;48.554;7.834;2023-02-01T16:42:49;10.10;;;3.80;;
4268;SDS011;2148;48.554;7.834;2023-02-01T16:45:16;8.37;;;4.50;;
4268;SDS011;2148;48.554;7.834;2023-02-01T16:47:43;11.10;;;4.93;;
4268;SDS011;2148;48.554;7.834;2023-02-01T16:50:16;7.37;;;4.00;;
4268;SDS011;2148;48.554;7.834;2023-02-01T16:52:42;11.60;;;6.83;;
4268;SDS011;2148;48.554;7.834;2023-02-01T16:55:14;20.10;;;8.50;;
4268;SDS011;2148;48.554;7.834;2023-02-01T16:57:40;16.37;;;8.23;;
4268;SDS011;2148;48.554;7.834;2023-02-01T17:00:07;8.37;;;4.13;;
4268;SDS011;2148;48.554;7.834;2023-02-01T17:02:33;11.87;;;5.47;;
4268;SDS011;2148;48.554;7.834;2023-02-01T17:04:58;12.40;;;4.90;;
4268;SDS011;2148;48.554;7.834;2023-02-01T17:07:24;11.63;;;4.80;;
4268;SDS011;2148;48.554;7.834;2023-02-01T17:09:49;7.43;;;3.20;;
4268;SDS011;2148;48.554;7.834;2023-02-01T17:14:47;9.33;;;5.63;;
4268;SDS011;2148;48.554;7.834;2023-02-01T17:17:13;8.17;;;4.83;;
4268;SDS011;2148;48.554;7.834;2023-02-01T17:19:38;8.03;;;4.90;;
4268;SDS011;2148;48.554;7.834;2023-02-01T17:22:04;7.27;;;3.43;;
4268;SDS011;2148;48.554;7.834;2023-02-01T17:24:30;10.30;;;5.17;;
4268;SDS011;2148;48.554;7.834;2023-02-01T17:26:56;12.80;;;5.03;;
4268;SDS011;2148;48.554;7.834;2023-02-01T17:29:21;10.57;;;4.97;;
4268;SDS011;2148;48.554;7.834;2023-02-01T17:31:53;14.20;;;4.97;;
4268;SDS011;2148;48.554;7.834;2023-02-01T17:34:20;7.70;;;4.63;;
4268;SDS011;2148;48.554;7.834;2023-02-01T17:36:46;5.30;;;3.97;;
4268;SDS011;2148;48.554;7.834;2023-02-01T17:39:12;7.30;;;3.57;;
4268;SDS011;2148;48.554;7.834;2023-02-01T17:41:58;6.00;;;3.10;;
4268;SDS011;2148;48.554;7.834;2023-02-01T17:44:24;6.60;;;3.50;;
4268;SDS011;2148;48.554;7.834;2023-02-01T17:46:50;10.10;;;4.47;;
4268;SDS011;2148;48.554;7.834;2023-02-01T17:49:15;10.13;;;4.40;;
4268;SDS011;2148;48.554;7.834;2023-02-01T17:51:40;7.27;;;3.80;;
4268;SDS011;2148;48.554;7.834;2023-02-01T17:54:08;9.10;;;3.97;;